Maddock, North Dakota
Current Conditions -  °F | °C
As of 6:15 AM on Friday 21 Nov 2014 (Local Time) from K5H4 Reporting Station
Clear Clear  
Wind Chill: 13°   Ceiling: Unl
Heat Index: 23°   Visibility: 10mi
Dew Point: 19°   Wind: 9mph
Humidity: 86%   Direction: 210°SSW
Pressure: 29.72"   Gusts: 17mph
Location:  47.96°N, 99.53°W
Report Text: K5H4 211215Z AUTO 21008G15KT 10SM CLR M05/M07 A2972 RMK AO2
Loading
Personal Weather Stations






























Interactive Weather Map New forecast layout! Learn more

10-Day Weather Forecast

Advertisements
Track Severe Weather on mobile